Time;durP1;ratioP1;P1;durP2;ratioP2;P2;SDS_P1;SDS_P2;PMS_P1;PMS_P2;Temp;Humidity;BMP_temperature;BMP_pressure;BME280_temperature;BME280_humidity;BME280_pressure;Samples;Min_cycle;Max_cycle;Signal;HPM_P1;HPM_P2
2023/01/07 00:02:00;;;;;;;0.73;0.60;;;;;;;;;;5055156;28;20048;-89
2023/01/07 00:04:28;;;;;;;0.77;0.77;;;;;;;;;;5054548;28;20052;-90
2023/01/07 00:06:55;;;;;;;0.80;0.75;;;;;;;;;;5055421;28;20412;-90
2023/01/07 00:09:21;;;;;;;1.52;1.42;;;;;;;;;;5055294;28;20106;-90
2023/01/07 00:11:48;;;;;;;0.55;0.55;;;;;;;;;;5055549;28;20045;-91
2023/01/07 00:14:14;;;;;;;1.42;1.33;;;;;;;;;;5054930;28;20094;-90
2023/01/07 00:16:41;;;;;;;1.60;1.50;;;;;;;;;;5062022;28;20182;-90
2023/01/07 00:19:09;;;;;;;0.40;0.40;;;;;;;;;;5075105;28;20170;-91
2023/01/07 00:21:37;;;;;;;1.20;1.20;;;;;;;;;;5075345;28;20048;-90
2023/01/07 00:24:04;;;;;;;1.25;1.23;;;;;;;;;;5075013;28;20048;-90
2023/01/07 00:26:31;;;;;;;2.15;1.42;;;;;;;;;;5057040;28;20044;-90
2023/01/07 00:28:58;;;;;;;0.77;0.77;;;;;;;;;;5054757;28;20106;-90
2023/01/07 00:31:26;;;;;;;0.20;0.20;;;;;;;;;;5055069;28;20049;-90
2023/01/07 00:34:05;;;;;;;0.65;0.65;;;;;;;;;;5054988;28;20053;-91
2023/01/07 00:36:34;;;;;;;0.32;0.32;;;;;;;;;;5060197;28;20044;-90
2023/01/07 00:39:03;;;;;;;0.30;0.30;;;;;;;;;;5074720;28;20052;-90
2023/01/07 00:41:29;;;;;;;0.95;0.93;;;;;;;;;;5072558;28;20491;-89
2023/01/07 00:43:56;;;;;;;2.35;1.45;;;;;;;;;;5054507;28;20057;-90
2023/01/07 00:46:23;;;;;;;1.73;1.63;;;;;;;;;;5054034;28;20049;-90
2023/01/07 00:48:49;;;;;;;3.47;1.27;;;;;;;;;;5054294;28;20052;-91
2023/01/07 00:51:16;;;;;;;0.15;0.15;;;;;;;;;;5054715;28;20057;-90
2023/01/07 00:53:43;;;;;;;0.47;0.47;;;;;;;;;;5054476;28;20102;-90
2023/01/07 00:56:11;;;;;;;1.85;1.75;;;;;;;;;;5054348;28;20393;-90
2023/01/07 00:58:38;;;;;;;0.38;0.38;;;;;;;;;;5059886;28;20082;-89
2023/01/07 01:01:04;;;;;;;1.88;1.77;;;;;;;;;;5074001;28;20048;-89
2023/01/07 01:03:31;;;;;;;0.93;0.93;;;;;;;;;;5073886;28;20044;-89
2023/01/07 01:06:01;;;;;;;1.33;1.23;;;;;;;;;;5073872;28;20048;-90
2023/01/07 01:08:27;;;;;;;0.25;0.25;;;;;;;;;;5073831;28;20044;-90
2023/01/07 01:10:54;;;;;;;2.30;1.10;;;;;;;;;;5074101;28;20475;-90
2023/01/07 01:13:22;;;;;;;0.40;0.40;;;;;;;;;;5074046;28;20102;-90
2023/01/07 01:15:48;;;;;;;0.77;0.77;;;;;;;;;;5074068;28;20052;-90
2023/01/07 01:18:15;;;;;;;2.20;2.00;;;;;;;;;;5073688;28;20488;-90
2023/01/07 01:20:42;;;;;;;0.90;0.90;;;;;;;;;;5074154;28;20052;-90
2023/01/07 01:23:09;;;;;;;1.52;1.42;;;;;;;;;;5073981;28;20048;-90
2023/01/07 01:25:35;;;;;;;1.23;1.08;;;;;;;;;;5073945;28;20048;-90
2023/01/07 01:28:02;;;;;;;1.00;1.00;;;;;;;;;;5073911;28;20072;-90
2023/01/07 01:30:29;;;;;;;0.28;0.28;;;;;;;;;;5073566;28;20048;-90
2023/01/07 01:32:56;;;;;;;0.60;0.60;;;;;;;;;;5073943;28;20044;-90
2023/01/07 01:35:22;;;;;;;0.30;0.30;;;;;;;;;;5073578;28;20041;-91
2023/01/07 01:37:49;;;;;;;0.93;0.93;;;;;;;;;;5073420;28;20106;-90
2023/01/07 01:40:15;;;;;;;0.60;0.60;;;;;;;;;;5053691;28;20103;-90
2023/01/07 01:42:42;;;;;;;0.30;0.30;;;;;;;;;;5053273;28;20049;-90
2023/01/07 01:45:09;;;;;;;0.65;0.65;;;;;;;;;;5053643;28;20045;-90
2023/01/07 01:47:39;;;;;;;1.30;1.20;;;;;;;;;;5053320;28;20041;-90
2023/01/07 01:50:09;;;;;;;0.40;0.40;;;;;;;;;;5053469;28;20120;-90
2023/01/07 01:52:37;;;;;;;1.33;1.00;;;;;;;;;;5053475;28;20493;-90
2023/01/07 01:55:05;;;;;;;1.27;1.23;;;;;;;;;;5053619;28;20049;-90
2023/01/07 01:57:33;;;;;;;0.50;0.50;;;;;;;;;;5052607;28;20099;-90
2023/01/07 01:59:59;;;;;;;0.32;0.30;;;;;;;;;;5070265;28;20044;-90
2023/01/07 02:02:27;;;;;;;0.40;0.40;;;;;;;;;;5053474;28;20103;-90
2023/01/07 02:04:56;;;;;;;0.47;0.47;;;;;;;;;;5052988;28;20053;-91
2023/01/07 02:07:22;;;;;;;0.32;0.32;;;;;;;;;;5053396;28;20045;-90
2023/01/07 02:09:54;;;;;;;1.13;1.13;;;;;;;;;;5053012;28;20091;-90
2023/01/07 02:12:28;;;;;;;2.70;1.67;;;;;;;;;;5053015;28;20110;-90
2023/01/07 02:15:09;;;;;;;0.93;0.93;;;;;;;;;;5053201;28;20394;-90
2023/01/07 02:17:39;;;;;;;0.28;0.28;;;;;;;;;;5053441;28;20049;-90
2023/01/07 02:20:21;;;;;;;0.47;0.47;;;;;;;;;;5053297;28;20052;-90
2023/01/07 02:23:06;;;;;;;1.65;1.45;;;;;;;;;;5053303;28;20044;-91
2023/01/07 02:25:44;;;;;;;0.80;0.80;;;;;;;;;;5053111;28;20049;-90
2023/01/07 02:28:10;;;;;;;;;;;;;;;;;;5053470;28;20122;-90
2023/01/07 02:30:41;;;;;;;0.22;0.20;;;;;;;;;;5052830;28;19928;-90
2023/01/07 02:33:28;;;;;;;0.63;0.63;;;;;;;;;;5052822;28;20088;-90
2023/01/07 02:36:08;;;;;;;0.47;0.47;;;;;;;;;;5047442;28;20045;-90
2023/01/07 02:38:39;;;;;;;0.73;0.73;;;;;;;;;;5052866;28;20447;-90
2023/01/07 02:41:05;;;;;;;;;;;;;;;;;;5053382;28;20049;-90
2023/01/07 02:43:37;;;;;;;0.43;0.43;;;;;;;;;;5053071;28;19920;-90
2023/01/07 02:46:03;;;;;;;;;;;;;;;;;;5053455;28;20106;-90
2023/01/07 02:48:31;;;;;;;0.43;0.43;;;;;;;;;;5052668;28;20368;-90
2023/01/07 02:50:57;;;;;;;0.73;0.68;;;;;;;;;;5053071;28;20049;-90
2023/01/07 02:53:25;;;;;;;1.55;0.65;;;;;;;;;;5053003;28;20045;-90
2023/01/07 02:55:57;;;;;;;0.75;0.75;;;;;;;;;;5052521;28;20045;-90
2023/01/07 02:58:44;;;;;;;0.30;0.28;;;;;;;;;;5052639;28;20044;-90
2023/01/07 03:01:21;;;;;;;1.52;1.15;;;;;;;;;;5037197;28;20177;-90
2023/01/07 03:03:54;;;;;;;0.25;0.25;;;;;;;;;;5072904;28;20071;-91
2023/01/07 03:06:27;;;;;;;1.42;1.42;;;;;;;;;;5072932;28;20056;-90
2023/01/07 03:09:01;;;;;;;0.60;0.60;;;;;;;;;;5074195;28;20049;-90
2023/01/07 03:11:29;;;;;;;0.85;0.85;;;;;;;;;;5076672;28;20048;-91
2023/01/07 03:13:58;;;;;;;0.63;0.63;;;;;;;;;;5076550;28;20189;-91
2023/01/07 03:16:28;;;;;;;0.70;0.70;;;;;;;;;;5076350;28;20500;-91
2023/01/07 03:18:58;;;;;;;0.57;0.57;;;;;;;;;;5076080;28;20477;-91
2023/01/07 03:21:27;;;;;;;2.80;2.70;;;;;;;;;;5076408;28;20482;-90
2023/01/07 03:23:55;;;;;;;0.65;0.65;;;;;;;;;;5075960;28;20553;-90
2023/01/07 03:26:25;;;;;;;1.55;1.45;;;;;;;;;;5076214;28;20052;-91
2023/01/07 03:28:52;;;;;;;0.40;0.40;;;;;;;;;;5076301;28;20048;-91
2023/01/07 03:31:20;;;;;;;0.55;0.55;;;;;;;;;;5076276;28;20080;-92
2023/01/07 03:33:49;;;;;;;0.50;0.50;;;;;;;;;;5075894;28;20077;-92
2023/01/07 03:36:17;;;;;;;0.10;0.10;;;;;;;;;;5075972;28;20106;-91
2023/01/07 03:38:44;;;;;;;0.35;0.35;;;;;;;;;;5075920;28;20094;-91
2023/01/07 03:42:38;;;;;;;0.50;0.50;;;;;;;;;;5076142;28;20163;-91
2023/01/07 03:43:58;;;;;;;0.57;0.57;;;;;;;;;;5075707;28;20045;-91
2023/01/07 03:46:24;;;;;;;0.30;0.30;;;;;;;;;;5075680;28;20518;-91
2023/01/07 03:48:51;;;;;;;0.57;0.57;;;;;;;;;;5075546;28;20048;-91
2023/01/07 03:51:17;;;;;;;0.50;0.50;;;;;;;;;;5075857;28;20061;-91
2023/01/07 03:53:44;;;;;;;2.20;1.98;;;;;;;;;;5075794;28;20070;-91
2023/01/07 03:56:10;;;;;;;9.50;5.75;;;;;;;;;;5075963;28;20455;-92
2023/01/07 03:58:37;;;;;;;0.57;0.57;;;;;;;;;;5075614;28;20161;-91
2023/01/07 04:01:05;;;;;;;0.68;0.45;;;;;;;;;;5075280;28;20045;-91
2023/01/07 04:03:31;;;;;;;0.82;0.82;;;;;;;;;;5075716;28;20052;-91
2023/01/07 04:05:58;;;;;;;0.63;0.63;;;;;;;;;;5075725;28;20044;-92
2023/01/07 04:08:24;;;;;;;0.63;0.63;;;;;;;;;;5075190;28;20094;-91
2023/01/07 04:10:51;;;;;;;0.20;0.20;;;;;;;;;;5075609;28;20052;-91
2023/01/07 04:13:17;;;;;;;0.30;0.30;;;;;;;;;;5055549;28;20456;-91
2023/01/07 04:15:44;;;;;;;1.77;0.63;;;;;;;;;;5060069;28;20059;-91
2023/01/07 04:18:12;;;;;;;0.60;0.60;;;;;;;;;;5075258;28;20131;-90
2023/01/07 04:20:38;;;;;;;0.30;0.30;;;;;;;;;;5074284;28;20048;-90
2023/01/07 04:23:05;;;;;;;0.65;0.65;;;;;;;;;;5075252;28;20117;-90
2023/01/07 04:25:31;;;;;;;1.77;1.67;;;;;;;;;;5074775;28;20097;-90
2023/01/07 04:27:58;;;;;;;0.50;0.50;;;;;;;;;;5075157;28;20131;-91
2023/01/07 04:30:24;;;;;;;0.75;0.75;;;;;;;;;;5074972;28;20110;-91
2023/01/07 04:32:51;;;;;;;0.93;0.88;;;;;;;;;;5073286;28;20072;-91
2023/01/07 04:35:19;;;;;;;1.50;1.27;;;;;;;;;;5074874;28;20049;-91
2023/01/07 04:37:45;;;;;;;2.83;2.72;;;;;;;;;;5075314;28;20389;-92
2023/01/07 04:40:12;;;;;;;2.33;2.22;;;;;;;;;;5074904;28;20057;-92
2023/01/07 04:42:38;;;;;;;1.15;1.15;;;;;;;;;;5074619;28;20048;-92
2023/01/07 04:45:05;;;;;;;0.82;0.82;;;;;;;;;;5074847;28;20446;-92
2023/01/07 04:47:32;;;;;;;0.95;0.95;;;;;;;;;;5074709;28;20044;-92
2023/01/07 04:49:58;;;;;;;0.52;0.52;;;;;;;;;;5073533;28;20514;-92
2023/01/07 04:52:26;;;;;;;0.82;0.82;;;;;;;;;;5074478;28;20045;-92
2023/01/07 04:54:53;;;;;;;0.50;0.43;;;;;;;;;;5074595;28;20044;-92
2023/01/07 04:57:19;;;;;;;0.20;0.20;;;;;;;;;;5074369;28;20106;-92
2023/01/07 04:59:46;;;;;;;0.60;0.60;;;;;;;;;;5074589;28;20052;-91
2023/01/07 05:02:12;;;;;;;2.03;1.92;;;;;;;;;;5074415;28;20451;-91
2023/01/07 05:04:39;;;;;;;0.73;0.73;;;;;;;;;;5074218;28;20131;-91
2023/01/07 05:07:05;;;;;;;1.05;1.05;;;;;;;;;;5073999;28;20131;-91
2023/01/07 05:09:33;;;;;;;0.40;0.35;;;;;;;;;;5074091;28;20094;-91
2023/01/07 05:12:00;;;;;;;0.93;0.77;;;;;;;;;;5074314;28;20044;-92
2023/01/07 05:14:26;;;;;;;1.13;0.77;;;;;;;;;;5074307;28;20102;-91
2023/01/07 05:16:53;;;;;;;0.98;0.93;;;;;;;;;;5073846;28;20052;-91
2023/01/07 05:19:20;;;;;;;0.88;0.88;;;;;;;;;;5074229;28;20106;-92
2023/01/07 05:21:47;;;;;;;1.08;1.08;;;;;;;;;;5074269;28;20052;-92
2023/01/07 05:24:13;;;;;;;0.13;0.13;;;;;;;;;;5073751;28;20094;-92
2023/01/07 05:26:41;;;;;;;0.75;0.75;;;;;;;;;;5073834;28;20095;-92
2023/01/07 05:29:09;;;;;;;0.82;0.80;;;;;;;;;;5073693;28;20106;-92
2023/01/07 05:31:35;;;;;;;0.40;0.40;;;;;;;;;;5073881;28;20048;-92
2023/01/07 05:34:02;;;;;;;0.45;0.45;;;;;;;;;;5074574;28;20052;-92
2023/01/07 05:36:28;;;;;;;0.30;0.30;;;;;;;;;;5076345;28;20052;-92
2023/01/07 05:38:55;;;;;;;0.30;0.30;;;;;;;;;;5073550;28;20044;-93
2023/01/07 05:41:21;;;;;;;0.85;0.85;;;;;;;;;;5059161;28;20057;-93
2023/01/07 05:43:49;;;;;;;2.00;1.90;;;;;;;;;;5053596;28;20474;-92
2023/01/07 05:46:16;;;;;;;0.30;0.30;;;;;;;;;;5053793;28;20102;-92
2023/01/07 05:48:42;;;;;;;0.73;0.63;;;;;;;;;;5053748;28;20053;-93
2023/01/07 05:51:09;;;;;;;1.23;1.23;;;;;;;;;;5053833;28;20049;-94
2023/01/07 05:53:35;;;;;;;0.52;0.35;;;;;;;;;;5053869;28;20049;-93
2023/01/07 05:56:02;;;;;;;1.88;1.77;;;;;;;;;;5053707;28;20049;-93
2023/01/07 05:58:28;;;;;;;1.35;1.25;;;;;;;;;;5062042;28;20049;-92
2023/01/07 06:00:56;;;;;;;0.30;0.30;;;;;;;;;;5073691;28;20094;-92
2023/01/07 06:03:23;;;;;;;0.93;0.93;;;;;;;;;;5073369;28;20446;-93
2023/01/07 06:05:50;;;;;;;0.40;0.40;;;;;;;;;;5073592;28;20048;-93
2023/01/07 06:08:17;;;;;;;0.50;0.50;;;;;;;;;;5073038;28;20048;-91
2023/01/07 06:10:43;;;;;;;0.32;0.32;;;;;;;;;;5073443;28;20102;-91
2023/01/07 06:13:10;;;;;;;0.55;0.55;;;;;;;;;;5073299;28;20048;-91
2023/01/07 06:15:37;;;;;;;2.65;2.45;;;;;;;;;;5067562;28;20049;-91
2023/01/07 06:18:05;;;;;;;0.35;0.35;;;;;;;;;;5073031;28;20049;-91
2023/01/07 06:20:33;;;;;;;0.70;0.70;;;;;;;;;;5073085;28;20102;-91
2023/01/07 06:23:00;;;;;;;0.32;0.32;;;;;;;;;;5073022;28;20091;-90
2023/01/07 06:25:26;;;;;;;0.30;0.30;;;;;;;;;;5073285;28;20048;-90
2023/01/07 06:27:53;;;;;;;1.02;1.02;;;;;;;;;;5073237;28;20044;-91
2023/01/07 06:30:19;;;;;;;1.05;1.05;;;;;;;;;;5072845;28;20098;-91
2023/01/07 06:32:46;;;;;;;0.70;0.70;;;;;;;;;;5071978;28;20078;-92
2023/01/07 06:35:14;;;;;;;2.13;2.00;;;;;;;;;;5061831;28;20049;-92
2023/01/07 06:37:40;;;;;;;0.75;0.75;;;;;;;;;;5069083;28;20049;-91
2023/01/07 06:40:07;;;;;;;1.00;0.98;;;;;;;;;;5062063;28;20052;-91
2023/01/07 06:42:34;;;;;;;1.02;1.00;;;;;;;;;;5052950;28;20045;-92
2023/01/07 06:45:00;;;;;;;1.35;1.30;;;;;;;;;;5059967;28;20045;-91
2023/01/07 06:47:27;;;;;;;1.08;0.98;;;;;;;;;;5076179;28;20106;-92
2023/01/07 06:49:53;;;;;;;0.45;0.45;;;;;;;;;;5067935;28;20044;-93
2023/01/07 06:52:21;;;;;;;1.73;1.63;;;;;;;;;;5076648;28;20048;-92
2023/01/07 06:54:48;;;;;;;2.90;1.90;;;;;;;;;;5056772;28;20094;-92
2023/01/07 06:57:14;;;;;;;0.95;0.95;;;;;;;;;;5056396;28;20045;-92
2023/01/07 06:59:41;;;;;;;2.05;1.95;;;;;;;;;;5056476;28;20053;-92
2023/01/07 07:02:09;;;;;;;2.53;1.85;;;;;;;;;;5056481;28;20053;-91
2023/01/07 07:04:35;;;;;;;2.92;2.50;;;;;;;;;;5056389;28;20443;-92
2023/01/07 07:07:02;;;;;;;2.17;2.00;;;;;;;;;;5066387;28;20052;-91
2023/01/07 07:09:30;;;;;;;2.08;1.98;;;;;;;;;;5055746;28;20506;-91
2023/01/07 07:11:56;;;;;;;1.73;1.63;;;;;;;;;;5055854;28;20095;-91
2023/01/07 07:14:23;;;;;;;3.08;1.80;;;;;;;;;;5058434;28;20057;-90
2023/01/07 07:16:50;;;;;;;1.92;1.83;;;;;;;;;;5055840;28;20114;-89
2023/01/07 07:19:16;;;;;;;1.48;1.35;;;;;;;;;;5055707;28;20051;-89
2023/01/07 07:21:43;;;;;;;1.80;1.70;;;;;;;;;;5060112;28;20125;-90
2023/01/07 07:24:10;;;;;;;4.43;0.98;;;;;;;;;;5071325;28;20090;-89
2023/01/07 07:26:38;;;;;;;2.65;1.42;;;;;;;;;;5075218;28;20040;-89
2023/01/07 07:29:04;;;;;;;1.70;1.60;;;;;;;;;;5075103;28;20438;-89
2023/01/07 07:31:30;;;;;;;1.55;1.45;;;;;;;;;;5075556;28;20060;-89
2023/01/07 07:33:57;;;;;;;0.93;0.93;;;;;;;;;;5074906;28;20048;-89
2023/01/07 07:36:23;;;;;;;5.03;4.60;;;;;;;;;;5059404;28;20096;-89
2023/01/07 07:38:50;;;;;;;2.50;2.40;;;;;;;;;;5054977;28;20048;-89
2023/01/07 07:41:20;;;;;;;3.50;3.20;;;;;;;;;;5055694;28;20099;-90
2023/01/07 07:43:49;;;;;;;0.80;0.80;;;;;;;;;;5061262;28;20049;-89
2023/01/07 07:46:15;;;;;;;2.95;2.70;;;;;;;;;;5054668;28;20107;-88
2023/01/07 07:48:42;;;;;;;2.13;1.98;;;;;;;;;;5054358;28;20048;-89
2023/01/07 07:51:08;;;;;;;2.22;2.13;;;;;;;;;;5058718;28;20048;-89
2023/01/07 07:53:35;;;;;;;1.58;1.40;;;;;;;;;;5066879;28;20041;-89
2023/01/07 07:56:01;;;;;;;2.20;2.00;;;;;;;;;;5061051;28;20044;-89
2023/01/07 07:58:28;;;;;;;3.42;3.20;;;;;;;;;;5059454;28;20060;-90
2023/01/07 08:00:56;;;;;;;1.50;1.42;;;;;;;;;;5062988;28;20048;-89
2023/01/07 08:03:22;;;;;;;2.25;2.13;;;;;;;;;;5074870;28;20056;-89
2023/01/07 08:05:49;;;;;;;1.75;1.50;;;;;;;;;;5074865;28;20095;-90
2023/01/07 08:08:15;;;;;;;5.22;3.22;;;;;;;;;;5074998;28;20396;-90
2023/01/07 08:10:42;;;;;;;4.50;2.30;;;;;;;;;;5072269;28;20086;-89
2023/01/07 08:13:09;;;;;;;1.20;1.20;;;;;;;;;;5071762;28;20053;-90
2023/01/07 08:15:36;;;;;;;3.28;1.45;;;;;;;;;;5074456;28;20048;-89
2023/01/07 08:18:05;;;;;;;2.53;2.33;;;;;;;;;;5069901;28;20045;-90
2023/01/07 08:20:31;;;;;;;2.15;2.03;;;;;;;;;;5054742;28;20037;-90
2023/01/07 08:22:58;;;;;;;1.92;1.83;;;;;;;;;;5070029;28;20045;-89
2023/01/07 08:25:25;;;;;;;2.67;2.38;;;;;;;;;;5054372;28;20088;-90
2023/01/07 08:27:51;;;;;;;2.83;2.38;;;;;;;;;;5054825;28;20049;-90
2023/01/07 08:30:19;;;;;;;1.65;1.55;;;;;;;;;;5054786;28;20809;-90
2023/01/07 08:32:45;;;;;;;3.20;2.90;;;;;;;;;;5073158;28;20079;-90
2023/01/07 08:35:14;;;;;;;3.63;3.30;;;;;;;;;;5074552;28;20048;-90
2023/01/07 08:37:41;;;;;;;3.45;3.35;;;;;;;;;;5074336;28;20051;-91
2023/01/07 08:40:08;;;;;;;3.33;3.10;;;;;;;;;;5074372;28;20052;-91
2023/01/07 08:42:35;;;;;;;4.18;3.97;;;;;;;;;;5073866;28;20459;-90
2023/01/07 08:45:01;;;;;;;2.40;2.20;;;;;;;;;;5055099;28;20098;-91
2023/01/07 08:47:28;;;;;;;3.28;3.05;;;;;;;;;;5067184;28;20048;-91
2023/01/07 08:49:54;;;;;;;2.13;2.03;;;;;;;;;;5073115;28;20044;-91
2023/01/07 08:52:23;;;;;;;4.43;4.13;;;;;;;;;;5073856;28;20048;-91
2023/01/07 08:54:50;;;;;;;3.00;2.80;;;;;;;;;;5074103;28;20080;-91
2023/01/07 08:57:17;;;;;;;1.58;1.40;;;;;;;;;;5074152;28;20118;-90
2023/01/07 08:59:43;;;;;;;2.17;2.00;;;;;;;;;;5074261;28;20052;-92
2023/01/07 09:02:12;;;;;;;4.03;3.60;;;;;;;;;;5074571;28;20390;-89
2023/01/07 09:04:39;;;;;;;1.35;1.23;;;;;;;;;;5073197;28;20056;-90
2023/01/07 09:07:05;;;;;;;3.30;3.05;;;;;;;;;;5073799;28;20459;-90
2023/01/07 09:09:33;;;;;;;1.38;1.38;;;;;;;;;;5074475;28;20113;-90
2023/01/07 09:12:00;;;;;;;1.77;1.48;;;;;;;;;;5075363;28;20451;-90
2023/01/07 09:14:27;;;;;;;2.10;1.90;;;;;;;;;;5062518;28;20044;-90
2023/01/07 09:16:53;;;;;;;2.63;2.42;;;;;;;;;;5055218;28;20049;-91
2023/01/07 09:19:20;;;;;;;4.90;4.70;;;;;;;;;;5055355;28;20374;-91
2023/01/07 09:21:46;;;;;;;3.03;2.47;;;;;;;;;;5054771;28;20103;-91
2023/01/07 09:24:13;;;;;;;2.88;2.17;;;;;;;;;;5065348;28;20040;-94
2023/01/07 09:26:42;;;;;;;2.03;1.73;;;;;;;;;;5061104;28;20115;-94
2023/01/07 09:29:08;;;;;;;2.33;2.22;;;;;;;;;;5054118;28;20536;-93
2023/01/07 09:31:35;;;;;;;1.92;1.75;;;;;;;;;;5055766;28;20079;-96
2023/01/07 09:34:02;;;;;;;1.75;1.65;;;;;;;;;;5055952;28;20053;-95
2023/01/07 09:36:28;;;;;;;2.58;1.90;;;;;;;;;;5054205;28;20110;-94
2023/01/07 09:38:55;;;;;;;3.22;2.63;;;;;;;;;;5062412;28;20559;-96
2023/01/07 09:41:28;;;;;;;4.10;3.80;;;;;;;;;;5072867;28;20051;-95
2023/01/07 09:43:59;;;;;;;7.60;4.63;;;;;;;;;;5069543;28;20103;-95
2023/01/07 09:46:27;;;;;;;4.28;1.90;;;;;;;;;;5055541;28;20052;-96
2023/01/07 09:48:57;;;;;;;2.00;1.90;;;;;;;;;;5056666;28;20485;-96
2023/01/07 09:51:27;;;;;;;2.70;2.58;;;;;;;;;;5054651;28;20135;-95
2023/01/07 09:53:55;;;;;;;1.95;1.85;;;;;;;;;;5054234;28;20049;-94
2023/01/07 09:56:23;;;;;;;3.67;3.38;;;;;;;;;;5054338;28;20056;-95
2023/01/07 09:58:51;;;;;;;2.13;1.80;;;;;;;;;;5061003;28;20477;-95
2023/01/07 10:01:23;;;;;;;3.58;3.28;;;;;;;;;;5054009;28;20118;-95
2023/01/07 10:03:53;;;;;;;3.53;2.70;;;;;;;;;;5054037;28;20053;-95
2023/01/07 10:06:22;;;;;;;2.78;2.60;;;;;;;;;;5053804;28;20052;-94
2023/01/07 10:08:59;;;;;;;4.20;3.90;;;;;;;;;;5053716;28;20404;-94
2023/01/07 10:11:32;;;;;;;4.68;1.95;;;;;;;;;;5070569;28;20044;-94
2023/01/07 10:14:04;;;;;;;3.80;3.10;;;;;;;;;;5053541;28;20067;-93
2023/01/07 10:16:38;;;;;;;3.05;2.85;;;;;;;;;;5065664;28;20111;-93
2023/01/07 10:19:07;;;;;;;5.20;3.47;;;;;;;;;;5060525;28;20045;-94
2023/01/07 10:21:38;;;;;;;3.33;3.13;;;;;;;;;;5074996;28;20427;-94
2023/01/07 10:24:04;;;;;;;;;;;;;;;;;;5073761;28;20056;-93
2023/01/07 10:26:34;;;;;;;2.28;2.17;;;;;;;;;;5072964;28;19920;-93
2023/01/07 10:29:02;;;;;;;3.10;2.83;;;;;;;;;;5073564;28;20122;-94
2023/01/07 10:31:29;;;;;;;3.03;2.83;;;;;;;;;;5072496;28;20052;-94
2023/01/07 10:33:58;;;;;;;3.45;2.97;;;;;;;;;;5068443;28;20175;-93
2023/01/07 10:36:26;;;;;;;3.75;2.10;;;;;;;;;;5053265;28;20045;-93
2023/01/07 10:38:56;;;;;;;2.88;2.67;;;;;;;;;;5052723;28;20053;-94
2023/01/07 10:41:25;;;;;;;2.28;2.15;;;;;;;;;;5052679;28;20053;-93
2023/01/07 10:44:06;;;;;;;1.60;1.58;;;;;;;;;;5052843;28;20053;-94
2023/01/07 10:46:44;;;;;;;2.50;2.30;;;;;;;;;;5070401;28;20052;-94
2023/01/07 10:49:27;;;;;;;2.85;2.75;;;;;;;;;;5063754;28;20036;-94
2023/01/07 10:52:08;;;;;;;4.60;3.75;;;;;;;;;;5072878;28;20542;-95
2023/01/07 10:54:52;;;;;;;5.43;2.90;;;;;;;;;;5072926;28;20098;-95
2023/01/07 10:57:20;;;;;;;4.93;2.75;;;;;;;;;;5072895;28;20617;-95
2023/01/07 10:59:49;;;;;;;1.90;1.80;;;;;;;;;;5073036;28;20070;-94
2023/01/07 11:02:17;;;;;;;4.50;3.13;;;;;;;;;;5064452;28;20061;-94
2023/01/07 11:04:45;;;;;;;2.10;1.92;;;;;;;;;;5052632;28;20261;-94
2023/01/07 11:07:18;;;;;;;3.85;1.85;;;;;;;;;;5058939;28;20041;-94
2023/01/07 11:09:46;;;;;;;2.33;2.22;;;;;;;;;;5072498;28;20106;-94
2023/01/07 11:12:20;;;;;;;3.53;3.22;;;;;;;;;;5090980;28;20044;-94
2023/01/07 11:14:47;;;;;;;2.85;2.65;;;;;;;;;;5093459;28;20056;-94
2023/01/07 11:17:18;;;;;;;3.25;3.05;;;;;;;;;;5093058;28;20059;-95
2023/01/07 11:19:47;;;;;;;2.17;2.08;;;;;;;;;;5092958;28;20508;-94
2023/01/07 11:22:35;;;;;;;4.53;4.32;;;;;;;;;;5093540;28;20058;-95
2023/01/07 11:25:03;;;;;;;4.65;4.05;;;;;;;;;;5073921;28;20049;-96
2023/01/07 11:27:30;;;;;;;3.35;3.10;;;;;;;;;;5066631;28;20051;-95
2023/01/07 11:29:58;;;;;;;2.63;2.42;;;;;;;;;;5059485;28;20099;-94
2023/01/07 11:32:26;;;;;;;1.80;1.67;;;;;;;;;;5063130;28;20045;-94
2023/01/07 11:34:58;;;;;;;3.22;3.03;;;;;;;;;;5058125;28;20040;-94
2023/01/07 11:37:32;;;;;;;1.98;1.88;;;;;;;;;;5059035;28;20464;-94
2023/01/07 11:40:00;;;;;;;5.28;4.20;;;;;;;;;;5057714;28;20143;-95
2023/01/07 11:42:38;;;;;;;8.70;3.20;;;;;;;;;;5057175;28;20390;-95
2023/01/07 11:45:08;;;;;;;2.45;2.03;;;;;;;;;;5068980;28;20094;-94
2023/01/07 11:47:37;;;;;;;2.45;2.30;;;;;;;;;;5094645;28;20109;-94
2023/01/07 11:50:05;;;;;;;2.88;2.67;;;;;;;;;;5085125;28;20101;-95
2023/01/07 11:52:32;;;;;;;2.08;1.98;;;;;;;;;;5076424;28;20040;-94
2023/01/07 11:54:58;;;;;;;3.65;3.35;;;;;;;;;;5076952;28;20052;-95
2023/01/07 11:57:26;;;;;;;3.05;2.80;;;;;;;;;;5078063;28;20045;-94
2023/01/07 12:00:05;;;;;;;3.17;2.97;;;;;;;;;;5078601;28;20049;-94
2023/01/07 12:02:31;;;;;;;12.98;2.67;;;;;;;;;;5077813;28;20098;-94
2023/01/07 12:05:12;;;;;;;3.92;3.72;;;;;;;;;;5077515;28;20045;-94
2023/01/07 12:07:44;;;;;;;3.03;1.88;;;;;;;;;;5078480;28;20110;-93
2023/01/07 12:10:24;;;;;;;2.00;1.90;;;;;;;;;;5078731;28;20052;-93
2023/01/07 12:12:50;;;;;;;4.45;4.18;;;;;;;;;;5076575;28;20056;-93
2023/01/07 12:15:18;;;;;;;1.83;1.73;;;;;;;;;;5076232;28;20102;-93
2023/01/07 12:17:46;;;;;;;3.85;3.67;;;;;;;;;;5076152;28;20101;-93
2023/01/07 12:20:23;;;;;;;2.40;2.30;;;;;;;;;;5074909;28;20448;-93
2023/01/07 12:22:57;;;;;;;5.85;2.78;;;;;;;;;;5075079;28;20056;-94
2023/01/07 12:25:29;;;;;;;2.72;2.63;;;;;;;;;;5075211;28;20052;-93
2023/01/07 12:28:02;;;;;;;4.50;4.10;;;;;;;;;;5075317;28;20488;-93
2023/01/07 12:30:40;;;;;;;4.50;4.30;;;;;;;;;;5074919;28;20094;-93
2023/01/07 12:33:12;;;;;;;3.28;3.08;;;;;;;;;;5075134;28;20139;-93
2023/01/07 12:35:40;;;;;;;5.30;4.90;;;;;;;;;;5062886;28;20052;-93
2023/01/07 12:38:11;;;;;;;3.55;3.25;;;;;;;;;;5060349;28;20044;-93
2023/01/07 12:40:37;;;;;;;;;;;;;;;;;;5075045;28;20140;-93
2023/01/07 12:43:09;;;;;;;2.92;2.78;;;;;;;;;;5074841;28;19970;-92
2023/01/07 12:45:39;;;;;;;5.22;4.80;;;;;;;;;;5075026;28;20052;-92
2023/01/07 12:48:11;;;;;;;2.97;2.78;;;;;;;;;;5075003;28;20466;-93
2023/01/07 12:50:40;;;;;;;3.53;3.33;;;;;;;;;;5074671;28;20098;-92
2023/01/07 12:53:11;;;;;;;6.13;3.63;;;;;;;;;;5074546;28;20049;-93
2023/01/07 12:55:41;;;;;;;3.70;3.47;;;;;;;;;;5072545;28;20044;-93
2023/01/07 12:58:13;;;;;;;7.97;3.63;;;;;;;;;;5074669;28;20102;-92
2023/01/07 13:00:43;;;;;;;3.50;3.28;;;;;;;;;;5077292;28;20049;-94
2023/01/07 13:03:14;;;;;;;3.92;3.72;;;;;;;;;;5075332;28;20048;-94
2023/01/07 13:05:42;;;;;;;5.43;5.00;;;;;;;;;;5074927;28;20045;-94
2023/01/07 13:08:11;;;;;;;3.00;2.88;;;;;;;;;;5074824;28;20075;-94
2023/01/07 13:10:40;;;;;;;6.97;4.80;;;;;;;;;;5082187;28;20098;-94
2023/01/07 13:13:12;;;;;;;3.80;3.38;;;;;;;;;;5074061;28;20102;-93
2023/01/07 13:15:40;;;;;;;6.25;5.93;;;;;;;;;;5074539;28;20098;-93
2023/01/07 13:18:12;;;;;;;4.65;4.38;;;;;;;;;;5074049;28;20048;-93
2023/01/07 13:20:57;;;;;;;6.30;3.78;;;;;;;;;;5074225;28;20070;-93
2023/01/07 13:23:26;;;;;;;3.45;3.03;;;;;;;;;;5074712;28;20044;-91
2023/01/07 13:26:18;;;;;;;4.72;4.50;;;;;;;;;;5074729;28;20488;-93
2023/01/07 13:28:54;;;;;;;2.88;2.67;;;;;;;;;;5074416;28;20466;-94
2023/01/07 13:31:36;;;;;;;3.38;3.15;;;;;;;;;;5073548;28;20132;-94
2023/01/07 13:34:10;;;;;;;9.80;6.32;;;;;;;;;;5072673;28;20049;-93
2023/01/07 13:36:39;;;;;;;3.50;3.30;;;;;;;;;;5074995;28;20048;-94
2023/01/07 13:39:21;;;;;;;5.00;4.35;;;;;;;;;;5075310;28;20052;-95
2023/01/07 13:41:57;;;;;;;4.03;3.83;;;;;;;;;;5074242;28;20060;-93
2023/01/07 13:44:35;;;;;;;3.10;2.95;;;;;;;;;;5073475;28;20052;-92
2023/01/07 13:47:02;;;;;;;4.18;3.88;;;;;;;;;;5071549;28;20459;-93
2023/01/07 13:49:31;;;;;;;5.50;5.10;;;;;;;;;;5053882;28;20056;-92
2023/01/07 13:52:11;;;;;;;4.53;4.30;;;;;;;;;;5053635;28;20044;-93
2023/01/07 13:54:58;;;;;;;3.67;3.38;;;;;;;;;;5053446;28;20808;-93
2023/01/07 13:57:44;;;;;;;4.10;3.88;;;;;;;;;;5053568;28;20045;-92
2023/01/07 14:00:29;;;;;;;4.00;3.80;;;;;;;;;;5054338;28;20045;-93
2023/01/07 14:02:57;;;;;;;2.72;2.53;;;;;;;;;;5054353;28;20103;-91
2023/01/07 14:05:24;;;;;;;5.80;5.47;;;;;;;;;;5059311;28;20049;-90
2023/01/07 14:07:51;;;;;;;4.60;4.15;;;;;;;;;;5071709;28;20045;-92
2023/01/07 14:10:18;;;;;;;6.13;4.78;;;;;;;;;;5073366;28;20048;-92
2023/01/07 14:13:03;;;;;;;5.82;5.60;;;;;;;;;;5073690;28;20057;-92
2023/01/07 14:15:54;;;;;;;3.83;3.63;;;;;;;;;;5073083;28;20118;-92
2023/01/07 14:18:31;;;;;;;3.20;3.00;;;;;;;;;;5073820;28;20045;-92
2023/01/07 14:21:03;;;;;;;4.10;3.90;;;;;;;;;;5073314;28;20053;-92
2023/01/07 14:23:32;;;;;;;3.25;3.13;;;;;;;;;;5072065;28;20495;-93
2023/01/07 14:26:08;;;;;;;2.83;2.63;;;;;;;;;;5072991;28;20492;-92
2023/01/07 14:28:56;;;;;;;3.05;2.85;;;;;;;;;;5073605;28;20056;-92
2023/01/07 14:31:25;;;;;;;3.72;3.53;;;;;;;;;;5047904;28;20143;-92
2023/01/07 14:33:52;;;;;;;7.55;7.15;;;;;;;;;;5073421;28;20385;-93
2023/01/07 14:36:19;;;;;;;3.75;3.55;;;;;;;;;;5072997;28;20055;-93
2023/01/07 14:39:00;;;;;;;3.53;3.13;;;;;;;;;;5072780;28;20048;-92
2023/01/07 14:41:27;;;;;;;4.28;3.85;;;;;;;;;;5069059;28;20105;-92
2023/01/07 14:44:04;;;;;;;4.60;4.05;;;;;;;;;;5072979;28;20049;-92
2023/01/07 14:46:45;;;;;;;4.18;3.88;;;;;;;;;;5073253;28;20454;-92
2023/01/07 14:49:18;;;;;;;3.22;3.03;;;;;;;;;;5072831;28;20443;-91
2023/01/07 14:51:47;;;;;;;4.07;3.78;;;;;;;;;;5072585;28;20044;-91
2023/01/07 14:54:21;;;;;;;5.65;5.22;;;;;;;;;;5072842;28;20063;-91
2023/01/07 14:56:57;;;;;;;7.18;5.05;;;;;;;;;;5063508;28;20107;-90
2023/01/07 14:59:41;;;;;;;3.38;3.17;;;;;;;;;;5053039;28;20048;-91